Time;durP1;ratioP1;P1;durP2;ratioP2;P2;SDS_P1;SDS_P2;PMS_P1;PMS_P2;Temp;Humidity;BMP_temperature;BMP_pressure;BME280_temperature;BME280_humidity;BME280_pressure;Samples;Min_cycle;Max_cycle;Signal;HPM_P1;HPM_P2
2022/12/02 00:01:13;;;;;;;63.90;21.45;;;3.40;99.90;;;;;;4999421;28;20061;-64
2022/12/02 00:03:39;;;;;;;56.05;20.52;;;3.40;99.90;;;;;;4997934;28;20551;-65
2022/12/02 00:06:14;;;;;;;58.92;21.75;;;3.40;99.90;;;;;;5008215;28;20398;-64
2022/12/02 00:08:40;;;;;;;56.45;20.73;;;3.40;99.90;;;;;;4997185;28;20066;-65
2022/12/02 00:11:24;;;;;;;63.08;22.77;;;3.40;99.90;;;;;;4999982;28;20556;-65
2022/12/02 00:13:50;;;;;;;60.85;21.85;;;3.40;99.90;;;;;;5002813;28;20593;-63
2022/12/02 00:16:20;;;;;;;57.83;20.73;;;3.40;99.90;;;;;;5001988;28;20049;-65
2022/12/02 00:18:45;;;;;;;53.67;21.55;;;3.50;99.90;;;;;;4999796;28;20057;-65
2022/12/02 00:21:11;;;;;;;57.92;20.73;;;3.40;99.90;;;;;;5022312;28;20143;-64
2022/12/02 00:23:36;;;;;;;53.78;21.35;;;3.50;99.90;;;;;;5007917;28;20042;-64
2022/12/02 00:26:02;;;;;;;60.17;22.13;;;3.50;99.90;;;;;;5028042;28;20034;-63
2022/12/02 00:28:27;;;;;;;60.17;21.33;;;3.50;99.90;;;;;;5000782;28;20038;-64
2022/12/02 00:30:53;;;;;;;53.05;19.58;;;3.50;99.90;;;;;;5008915;28;20049;-64
2022/12/02 00:33:18;;;;;;;56.05;20.48;;;3.50;99.90;;;;;;5002794;28;20147;-65
2022/12/02 00:35:44;;;;;;;62.97;21.55;;;3.40;99.90;;;;;;5004661;28;20045;-64
2022/12/02 00:38:10;;;;;;;51.58;20.90;;;3.40;99.90;;;;;;5007136;28;20077;-64
2022/12/02 00:40:36;;;;;;;51.55;19.85;;;3.50;99.90;;;;;;5006005;28;20141;-64
2022/12/02 00:48:30;;;;;;;47.60;17.88;;;3.40;99.90;;;;;;5008127;28;20129;-64
2022/12/02 00:50:56;;;;;;;43.42;17.50;;;3.40;99.90;;;;;;5003113;28;20046;-64
2022/12/02 00:53:22;;;;;;;50.28;17.70;;;3.40;99.90;;;;;;5002584;28;20041;-64
2022/12/02 00:55:47;;;;;;;45.70;16.33;;;3.40;99.90;;;;;;4998623;28;20030;-64
2022/12/02 00:58:13;;;;;;;48.28;18.77;;;3.40;99.90;;;;;;4997778;28;20489;-65
2022/12/02 01:00:38;;;;;;;44.85;16.70;;;3.40;99.90;;;;;;4999981;28;20065;-64
2022/12/02 01:03:04;;;;;;;43.38;16.95;;;3.30;99.90;;;;;;4998262;28;20073;-64
2022/12/02 01:05:30;;;;;;;45.50;17.00;;;3.30;99.90;;;;;;4998063;28;20068;-65
2022/12/02 01:07:55;;;;;;;44.22;16.58;;;3.30;99.90;;;;;;4997062;28;20168;-65
2022/12/02 01:10:21;;;;;;;43.72;16.73;;;3.30;99.90;;;;;;5000404;28;20646;-66
2022/12/02 01:12:46;;;;;;;49.70;17.67;;;3.30;99.90;;;;;;4995019;28;20038;-64
2022/12/02 01:15:12;;;;;;;41.83;16.42;;;3.30;99.90;;;;;;5000402;28;20044;-65
2022/12/02 01:17:37;;;;;;;46.97;17.45;;;3.30;99.90;;;;;;4999433;28;20033;-65
2022/12/02 01:20:04;;;;;;;46.05;16.48;;;3.30;99.90;;;;;;5000980;28;20096;-64
2022/12/02 01:22:30;;;;;;;41.72;15.85;;;3.30;99.90;;;;;;5007449;28;20561;-64
2022/12/02 01:24:55;;;;;;;39.38;14.90;;;3.30;99.90;;;;;;5004639;28;20134;-63
2022/12/02 01:27:21;;;;;;;37.08;14.40;;;3.20;99.90;;;;;;5010343;28;20038;-65
2022/12/02 01:29:47;;;;;;;37.67;14.05;;;3.20;99.90;;;;;;5003923;28;22664;-65
2022/12/02 01:32:12;;;;;;;32.58;12.43;;;3.20;99.90;;;;;;5003653;28;20038;-64
2022/12/02 01:34:38;;;;;;;29.10;11.48;;;3.20;99.90;;;;;;5002040;28;20033;-66
2022/12/02 01:37:04;;;;;;;27.27;10.95;;;3.10;99.90;;;;;;5007853;28;20490;-64
2022/12/02 01:39:29;;;;;;;33.28;11.02;;;3.10;99.90;;;;;;5004581;28;20049;-65
2022/12/02 01:41:55;;;;;;;30.67;12.13;;;3.10;99.90;;;;;;5006133;28;20063;-64
2022/12/02 01:44:21;;;;;;;24.35;10.48;;;3.00;99.90;;;;;;5005913;28;20054;-64
2022/12/02 01:46:46;;;;;;;28.70;11.93;;;3.10;99.90;;;;;;4996682;28;20042;-65
2022/12/02 01:49:12;;;;;;;26.15;11.27;;;3.00;99.90;;;;;;5007149;28;20046;-65
2022/12/02 01:51:38;;;;;;;26.48;11.57;;;3.00;99.90;;;;;;5001226;28;20034;-65
2022/12/02 01:54:03;;;;;;;26.08;10.45;;;3.00;99.90;;;;;;5000910;28;20438;-64
2022/12/02 01:56:29;;;;;;;31.15;10.45;;;3.00;99.90;;;;;;5004514;28;20097;-65
2022/12/02 01:58:55;;;;;;;31.02;11.20;;;3.00;99.90;;;;;;4998574;28;20077;-64
2022/12/02 02:01:29;;;;;;;33.33;13.05;;;2.90;99.90;;;;;;5001594;28;20140;-66
2022/12/02 02:03:55;;;;;;;33.28;12.90;;;2.90;99.90;;;;;;5016626;28;20041;-65
2022/12/02 02:06:23;;;;;;;30.10;12.75;;;2.80;99.90;;;;;;4997351;28;20046;-65
2022/12/02 02:08:50;;;;;;;35.63;12.45;;;2.80;99.90;;;;;;4999301;28;20131;-66
2022/12/02 02:11:16;;;;;;;32.40;13.23;;;2.80;99.90;;;;;;4995986;28;20046;-65
2022/12/02 02:13:42;;;;;;;32.53;13.02;;;2.80;99.90;;;;;;5001206;28;20034;-65
2022/12/02 02:16:07;;;;;;;32.30;13.02;;;2.80;99.90;;;;;;5000042;28;20382;-65
2022/12/02 02:18:34;;;;;;;32.60;13.82;;;2.70;99.90;;;;;;5000269;28;20030;-63
2022/12/02 02:21:00;;;;;;;37.70;13.60;;;2.70;99.90;;;;;;5007054;28;20050;-66
2022/12/02 02:23:26;;;;;;;36.00;13.70;;;2.70;99.90;;;;;;5002592;28;20047;-65
2022/12/02 02:25:55;;;;;;;33.13;13.05;;;2.70;99.90;;;;;;5005905;28;20045;-64
2022/12/02 02:28:23;;;;;;;32.55;14.77;;;2.60;99.90;;;;;;5002974;28;20397;-65
2022/12/02 02:30:50;;;;;;;33.35;13.32;;;2.60;99.90;;;;;;5005529;28;20462;-65
2022/12/02 02:33:17;;;;;;;33.50;12.93;;;2.70;99.90;;;;;;5004185;28;20050;-64
2022/12/02 02:35:44;;;;;;;31.92;12.10;;;2.70;99.90;;;;;;5004595;28;20041;-65
2022/12/02 02:38:13;;;;;;;32.03;13.07;;;2.70;99.90;;;;;;5004532;28;20034;-65
2022/12/02 02:40:40;;;;;;;29.58;12.52;;;2.70;99.90;;;;;;5006914;28;20037;-63
2022/12/02 02:43:07;;;;;;;31.52;12.18;;;2.70;99.90;;;;;;5004574;28;20053;-64
2022/12/02 02:45:35;;;;;;;26.90;12.43;;;2.70;99.90;;;;;;5007623;28;20204;-64
2022/12/02 02:48:02;;;;;;;29.80;12.57;;;2.70;99.90;;;;;;5011222;28;20132;-64
2022/12/02 02:50:29;;;;;;;27.45;11.38;;;2.70;99.90;;;;;;5005621;28;20038;-64
2022/12/02 02:52:54;;;;;;;32.38;12.10;;;2.70;99.90;;;;;;5011706;28;20049;-64
2022/12/02 02:55:23;;;;;;;35.58;14.23;;;2.70;99.90;;;;;;5001989;28;20042;-65
2022/12/02 02:57:49;;;;;;;36.15;13.02;;;2.70;99.90;;;;;;5007512;28;20045;-65
2022/12/02 03:00:17;;;;;;;42.78;15.02;;;2.70;99.90;;;;;;5006001;28;20045;-64
2022/12/02 03:02:45;;;;;;;46.08;16.27;;;2.70;99.90;;;;;;4991629;28;20421;-64
2022/12/02 03:05:11;;;;;;;48.08;16.52;;;2.70;99.90;;;;;;5005201;28;20053;-65
2022/12/02 03:07:37;;;;;;;43.67;17.02;;;2.70;99.90;;;;;;5009001;28;20124;-65
2022/12/02 03:10:05;;;;;;;49.55;18.63;;;2.70;99.90;;;;;;5006084;28;20188;-65
2022/12/02 03:12:31;;;;;;;50.55;18.75;;;2.70;99.90;;;;;;4998694;28;20041;-64
2022/12/02 03:14:57;;;;;;;51.03;18.83;;;2.70;99.90;;;;;;5007869;28;20041;-64
2022/12/02 03:17:23;;;;;;;60.72;19.35;;;2.70;99.90;;;;;;5009564;28;20459;-64
2022/12/02 03:19:49;;;;;;;57.40;18.52;;;2.70;99.90;;;;;;5009773;28;20044;-64
2022/12/02 03:22:15;;;;;;;40.92;17.13;;;2.70;99.90;;;;;;5010835;28;20045;-64
2022/12/02 03:24:40;;;;;;;49.90;18.23;;;2.60;99.90;;;;;;5006640;28;20121;-64
2022/12/02 03:27:07;;;;;;;52.22;17.75;;;2.60;99.90;;;;;;5015916;28;20081;-64
2022/12/02 03:29:33;;;;;;;46.45;18.45;;;2.60;99.90;;;;;;5006994;28;20049;-64
2022/12/02 03:32:00;;;;;;;50.38;19.45;;;2.60;99.90;;;;;;5009234;28;20030;-64
2022/12/02 03:34:26;;;;;;;53.63;19.48;;;2.50;99.90;;;;;;5008907;28;20076;-63
2022/12/02 03:36:52;;;;;;;49.53;17.42;;;2.50;99.90;;;;;;5005639;28;20544;-64
2022/12/02 03:39:18;;;;;;;53.15;19.38;;;2.50;99.90;;;;;;5009811;28;20080;-64
2022/12/02 03:41:45;;;;;;;43.47;16.75;;;2.50;99.90;;;;;;5006973;28;20507;-64
2022/12/02 03:44:12;;;;;;;41.08;17.58;;;2.40;99.90;;;;;;5008170;28;20062;-65
2022/12/02 03:46:37;;;;;;;49.25;16.98;;;2.40;99.90;;;;;;5006789;28;20377;-64
2022/12/02 03:49:03;;;;;;;43.47;16.65;;;2.40;99.90;;;;;;5019746;28;20048;-64
2022/12/02 03:51:30;;;;;;;44.53;17.23;;;2.40;99.90;;;;;;5007665;28;20052;-64
2022/12/02 03:53:56;;;;;;;43.03;16.40;;;2.40;99.90;;;;;;5009154;28;20045;-64
2022/12/02 03:56:22;;;;;;;46.53;17.85;;;2.40;99.90;;;;;;5007167;28;20042;-65
2022/12/02 03:58:50;;;;;;;45.40;16.95;;;2.40;99.90;;;;;;5005804;28;20053;-64
2022/12/02 04:01:16;;;;;;;42.88;17.45;;;2.40;99.90;;;;;;5003115;28;20446;-64
2022/12/02 04:03:42;;;;;;;54.13;18.27;;;2.40;99.90;;;;;;5008984;28;20127;-65
2022/12/02 04:06:08;;;;;;;47.85;16.42;;;2.30;99.90;;;;;;4990084;28;20089;-64
2022/12/02 04:08:34;;;;;;;46.45;16.55;;;2.30;99.90;;;;;;5007632;28;20045;-64
2022/12/02 04:11:00;;;;;;;43.67;16.70;;;2.30;99.90;;;;;;5005086;28;20038;-64
2022/12/02 04:13:25;;;;;;;43.90;17.35;;;2.30;99.90;;;;;;5010447;28;20037;-64
2022/12/02 04:15:51;;;;;;;50.72;17.02;;;2.30;99.90;;;;;;5028767;28;20065;-63
2022/12/02 04:18:17;;;;;;;51.17;18.38;;;2.30;99.90;;;;;;5003497;28;20583;-64
2022/12/02 04:20:42;;;;;;;47.70;17.55;;;2.30;99.90;;;;;;5007016;28;20049;-65
2022/12/02 04:23:08;;;;;;;45.80;18.83;;;2.30;99.90;;;;;;5005556;28;20038;-64
2022/12/02 04:25:34;;;;;;;50.20;17.92;;;2.30;99.90;;;;;;4998719;28;20042;-64
2022/12/02 04:28:01;;;;;;;49.10;17.27;;;2.30;99.90;;;;;;5005757;28;20540;-65
2022/12/02 04:30:26;;;;;;;53.90;18.63;;;2.30;99.90;;;;;;5000324;28;20077;-64
2022/12/02 04:32:52;;;;;;;49.55;17.65;;;2.30;99.90;;;;;;5007998;28;20073;-64
2022/12/02 04:35:18;;;;;;;49.03;18.10;;;2.30;99.90;;;;;;5002910;28;20458;-63
2022/12/02 04:37:43;;;;;;;56.55;20.05;;;2.30;99.90;;;;;;5000388;28;20041;-65
2022/12/02 04:40:09;;;;;;;50.58;18.83;;;2.30;99.90;;;;;;4999393;28;20129;-64
2022/12/02 04:42:35;;;;;;;52.13;18.08;;;2.20;99.90;;;;;;4998381;28;20045;-63
2022/12/02 04:45:01;;;;;;;53.80;19.30;;;2.20;99.90;;;;;;5005975;28;20058;-64
2022/12/02 04:47:26;;;;;;;57.00;20.42;;;2.20;99.90;;;;;;5004078;28;20099;-64
2022/12/02 04:49:52;;;;;;;53.33;19.58;;;2.10;99.90;;;;;;5008217;28;20073;-66
2022/12/02 04:52:18;;;;;;;58.45;19.48;;;2.10;99.90;;;;;;4998317;28;20048;-65
2022/12/02 04:54:43;;;;;;;57.08;18.80;;;2.10;99.90;;;;;;5007550;28;20125;-64
2022/12/02 04:57:09;;;;;;;57.70;19.92;;;2.10;99.90;;;;;;5004263;28;20045;-65
2022/12/02 04:59:34;;;;;;;59.47;20.10;;;2.10;99.90;;;;;;5004639;28;20048;-64
2022/12/02 05:02:00;;;;;;;51.22;18.17;;;2.00;99.90;;;;;;4998230;28;20070;-65
2022/12/02 05:04:26;;;;;;;57.53;19.13;;;2.00;99.90;;;;;;4998894;28;20486;-65
2022/12/02 05:06:51;;;;;;;61.05;20.27;;;2.00;99.90;;;;;;5004654;28;20054;-63
2022/12/02 05:09:17;;;;;;;56.20;20.13;;;2.00;99.90;;;;;;5001167;28;20037;-64
2022/12/02 05:11:42;;;;;;;54.60;18.83;;;2.00;99.90;;;;;;5008419;28;20544;-63
2022/12/02 05:14:08;;;;;;;55.45;19.92;;;2.00;99.90;;;;;;5007160;28;20040;-64
2022/12/02 05:16:33;;;;;;;64.82;19.10;;;2.00;99.90;;;;;;5006684;28;20070;-63
2022/12/02 05:18:59;;;;;;;62.63;20.20;;;2.00;99.90;;;;;;5002834;28;20378;-63
2022/12/02 05:21:24;;;;;;;61.35;19.25;;;2.00;99.90;;;;;;5006415;28;20044;-64
2022/12/02 05:23:50;;;;;;;55.35;20.45;;;2.00;99.90;;;;;;5005577;28;20060;-63
2022/12/02 05:26:16;;;;;;;59.80;20.45;;;2.00;99.90;;;;;;5003770;28;20050;-63
2022/12/02 05:28:41;;;;;;;62.72;20.60;;;2.00;99.90;;;;;;5010004;28;20470;-63
2022/12/02 05:31:07;;;;;;;59.90;20.13;;;2.00;99.90;;;;;;5006313;28;20038;-63
2022/12/02 05:33:32;;;;;;;59.47;20.23;;;2.00;99.90;;;;;;5008569;28;20060;-63
2022/12/02 05:35:58;;;;;;;59.75;20.85;;;2.00;99.90;;;;;;5003793;28;20516;-64
2022/12/02 05:38:23;;;;;;;62.25;19.67;;;2.00;99.90;;;;;;5001268;28;20478;-63
2022/12/02 05:40:54;;;;;;;51.90;19.25;;;2.00;99.90;;;;;;5008921;28;20113;-63
2022/12/02 05:43:23;;;;;;;56.67;20.02;;;2.00;99.90;;;;;;5019205;28;20049;-64
2022/12/02 05:45:48;;;;;;;55.60;19.48;;;2.00;99.90;;;;;;5005270;28;20041;-63
2022/12/02 05:48:16;;;;;;;57.33;19.17;;;2.00;99.90;;;;;;5008254;28;20109;-65
2022/12/02 05:50:43;;;;;;;58.38;20.67;;;2.00;99.90;;;;;;5007978;28;20048;-63
2022/12/02 05:53:17;;;;;;;65.35;21.65;;;2.00;99.90;;;;;;4997820;28;20030;-63
2022/12/02 05:55:43;;;;;;;55.22;20.13;;;2.00;99.90;;;;;;4996019;28;20428;-64
2022/12/02 05:58:11;;;;;;;57.40;19.75;;;2.00;99.90;;;;;;5004540;28;20062;-63
2022/12/02 06:00:36;;;;;;;57.25;21.27;;;2.00;99.90;;;;;;5000046;28;20045;-64
2022/12/02 06:03:05;;;;;;;60.42;21.02;;;2.00;99.90;;;;;;4997457;28;20048;-63
2022/12/02 06:05:37;;;;;;;57.67;20.55;;;2.00;99.90;;;;;;4997751;28;20042;-64
2022/12/02 06:08:24;;;;;;;62.83;21.05;;;2.00;99.90;;;;;;4997537;28;20089;-63
2022/12/02 06:10:58;;;;;;;61.95;19.90;;;2.00;99.90;;;;;;4999326;28;20180;-63
2022/12/02 06:13:26;;;;;;;63.83;19.63;;;2.00;99.90;;;;;;4998644;28;20026;-64
2022/12/02 06:15:53;;;;;;;59.30;19.83;;;2.00;99.90;;;;;;4999017;28;20041;-63
2022/12/02 06:18:25;;;;;;;62.53;22.13;;;2.00;99.90;;;;;;5000099;28;20057;-64
2022/12/02 06:21:16;;;;;;;59.90;20.23;;;2.00;99.90;;;;;;5017033;28;20054;-64
2022/12/02 06:23:48;;;;;;;59.17;20.55;;;2.00;99.90;;;;;;4998697;28;20050;-63
2022/12/02 06:26:15;;;;;;;62.58;21.17;;;2.10;99.90;;;;;;5008512;28;20046;-63
2022/12/02 06:28:43;;;;;;;67.55;22.50;;;2.10;99.90;;;;;;5002754;28;20083;-63
2022/12/02 06:31:17;;;;;;;64.70;20.77;;;2.10;99.90;;;;;;5007238;28;20038;-63
2022/12/02 06:33:45;;;;;;;68.28;22.33;;;2.10;99.90;;;;;;5010079;28;20045;-63
2022/12/02 06:36:15;;;;;;;66.55;22.10;;;2.10;99.90;;;;;;5009774;28;20092;-64
2022/12/02 06:38:53;;;;;;;72.25;22.90;;;2.20;99.90;;;;;;5005542;28;20030;-63
2022/12/02 06:41:27;;;;;;;60.33;19.60;;;2.20;99.90;;;;;;5009412;28;20037;-65
2022/12/02 06:46:43;;;;;;;65.70;21.45;;;2.20;99.90;;;;;;4999215;28;20052;-63
2022/12/02 06:49:20;;;;;;;73.68;22.05;;;2.20;99.90;;;;;;5011123;28;20441;-63
2022/12/02 06:51:51;;;;;;;66.00;21.60;;;2.20;99.90;;;;;;5009307;28;20034;-63
2022/12/02 06:54:22;;;;;;;65.35;22.80;;;2.20;99.90;;;;;;5009701;28;20037;-64
2022/12/02 06:56:49;;;;;;;68.60;21.25;;;2.20;99.90;;;;;;5006571;28;20088;-65
2022/12/02 06:59:20;;;;;;;60.63;21.02;;;2.20;99.90;;;;;;5005872;28;20107;-63
2022/12/02 07:01:46;;;;;;;62.20;22.48;;;2.30;99.90;;;;;;5004081;28;20863;-63
2022/12/02 07:04:36;;;;;;;67.50;21.83;;;2.30;99.90;;;;;;5004597;28;20046;-64
2022/12/02 07:07:31;;;;;;;65.70;21.60;;;2.30;99.90;;;;;;5008106;28;20048;-64
2022/12/02 07:10:06;;;;;;;63.60;21.05;;;2.30;99.90;;;;;;5023126;28;20526;-63
2022/12/02 07:12:41;;;;;;;71.10;22.63;;;2.30;99.90;;;;;;5005934;28;20394;-64
2022/12/02 07:15:28;;;;;;;64.65;21.70;;;2.30;99.90;;;;;;5005119;28;20042;-62
2022/12/02 07:18:15;;;;;;;67.93;22.08;;;2.30;99.90;;;;;;5007510;28;20048;-63
2022/12/02 07:20:43;;;;;;;64.75;20.27;;;2.30;99.90;;;;;;5002340;28;21122;-64
2022/12/02 07:23:26;;;;;;;68.55;21.20;;;2.30;99.90;;;;;;5000416;28;20390;-64
2022/12/02 07:25:54;;;;;;;61.28;22.02;;;2.30;99.90;;;;;;5005759;28;20116;-64
2022/12/02 07:28:35;;;;;;;66.72;21.20;;;2.20;99.90;;;;;;5004675;28;20124;-64
2022/12/02 07:31:18;;;;;;;78.28;23.98;;;2.30;99.90;;;;;;5007801;28;20042;-63
2022/12/02 07:33:44;;;;;;;68.47;22.70;;;2.30;99.90;;;;;;5027060;28;20476;-64
2022/12/02 07:36:10;;;;;;;71.57;22.10;;;2.30;99.90;;;;;;5016830;28;20041;-64
2022/12/02 07:38:36;;;;;;;65.88;23.23;;;2.30;99.90;;;;;;5009545;28;20046;-64
2022/12/02 07:41:02;;;;;;;68.70;21.80;;;2.30;99.90;;;;;;5009669;28;20038;-64
2022/12/02 07:43:28;;;;;;;70.47;22.63;;;2.30;99.90;;;;;;5009307;28;20112;-66
2022/12/02 07:45:53;;;;;;;65.78;21.15;;;2.30;99.90;;;;;;5008146;28;20054;-65
2022/12/02 07:48:19;;;;;;;69.32;23.15;;;2.20;99.90;;;;;;5008439;28;20067;-63
2022/12/02 07:50:44;;;;;;;66.40;20.92;;;2.30;99.90;;;;;;5012415;28;20041;-64
2022/12/02 07:53:10;;;;;;;63.92;22.45;;;2.20;99.90;;;;;;5008043;28;20385;-63
2022/12/02 07:55:35;;;;;;;72.85;21.63;;;2.20;99.90;;;;;;5005075;28;20369;-63
2022/12/02 07:58:01;;;;;;;71.18;21.90;;;2.20;99.90;;;;;;5007486;28;20041;-65
2022/12/02 08:00:27;;;;;;;75.07;24.58;;;2.30;99.90;;;;;;5008461;28;20042;-64
2022/12/02 08:02:54;;;;;;;68.35;22.67;;;2.30;99.90;;;;;;4999749;28;20409;-64
2022/12/02 08:05:20;;;;;;;77.40;23.13;;;2.30;99.90;;;;;;5006777;28;20516;-64
2022/12/02 08:07:46;;;;;;;71.20;22.27;;;2.30;99.90;;;;;;5006515;28;20045;-64
2022/12/02 08:10:12;;;;;;;64.72;21.33;;;2.30;99.90;;;;;;5007192;28;20042;-65
2022/12/02 08:12:38;;;;;;;65.38;21.75;;;2.30;99.90;;;;;;5004265;28;20038;-65
2022/12/02 08:15:05;;;;;;;72.95;22.17;;;2.30;99.90;;;;;;5008368;28;20046;-65
2022/12/02 08:17:31;;;;;;;63.92;19.77;;;2.30;99.90;;;;;;4998933;28;20046;-65
2022/12/02 08:19:56;;;;;;;70.65;19.83;;;2.30;99.90;;;;;;5011069;28;20038;-64
2022/12/02 08:22:22;;;;;;;60.13;19.60;;;2.30;99.90;;;;;;5011697;28;20032;-66
2022/12/02 08:24:47;;;;;;;66.63;19.52;;;2.30;99.90;;;;;;5009160;28;20073;-64
2022/12/02 08:27:13;;;;;;;59.35;18.52;;;2.30;99.90;;;;;;5006621;28;20039;-65
2022/12/02 08:29:38;;;;;;;68.75;21.20;;;2.30;99.90;;;;;;5009590;28;20034;-64
2022/12/02 08:32:04;;;;;;;58.78;19.00;;;2.30;99.90;;;;;;5009527;28;20046;-64
2022/12/02 08:34:30;;;;;;;60.70;19.40;;;2.20;99.90;;;;;;5011428;28;20037;-66
2022/12/02 08:36:55;;;;;;;70.13;20.23;;;2.30;99.90;;;;;;5010241;28;20042;-65
2022/12/02 08:39:21;;;;;;;66.40;19.92;;;2.20;99.90;;;;;;5006622;28;20096;-66
2022/12/02 08:41:46;;;;;;;58.83;20.83;;;2.20;99.90;;;;;;5011208;28;20116;-64
2022/12/02 08:44:12;;;;;;;72.72;22.85;;;2.30;99.90;;;;;;5008018;28;20054;-66
2022/12/02 08:46:38;;;;;;;61.42;20.13;;;2.20;99.90;;;;;;5006901;28;20038;-65
2022/12/02 08:49:05;;;;;;;71.60;20.95;;;2.30;99.90;;;;;;5009740;28;20046;-65
2022/12/02 08:51:31;;;;;;;66.75;20.60;;;2.30;99.90;;;;;;5010398;28;20053;-65
2022/12/02 08:53:56;;;;;;;64.43;19.50;;;2.30;99.90;;;;;;5006935;28;20045;-66
2022/12/02 08:56:22;;;;;;;73.95;21.92;;;2.30;99.90;;;;;;5007912;28;20038;-64
2022/12/02 08:58:48;;;;;;;64.55;20.38;;;2.40;99.90;;;;;;5009605;28;20117;-65
2022/12/02 09:01:13;;;;;;;70.55;19.77;;;2.40;99.90;;;;;;5007230;28;20092;-66
2022/12/02 09:03:39;;;;;;;60.72;19.30;;;2.40;99.90;;;;;;5007910;28;20057;-66
2022/12/02 09:06:04;;;;;;;66.30;19.80;;;2.40;99.90;;;;;;5034899;28;20049;-65
2022/12/02 09:08:30;;;;;;;66.30;20.70;;;2.40;99.90;;;;;;5008874;28;20040;-65
2022/12/02 09:10:56;;;;;;;62.53;19.52;;;2.40;99.90;;;;;;5006256;28;20046;-67
2022/12/02 09:13:21;;;;;;;66.35;20.88;;;2.40;99.90;;;;;;5009698;28;20052;-65
2022/12/02 09:15:47;;;;;;;64.70;21.05;;;2.40;99.90;;;;;;5007080;28;20540;-64
2022/12/02 09:18:12;;;;;;;74.43;20.67;;;2.40;99.90;;;;;;5011203;28;20429;-65
2022/12/02 09:20:38;;;;;;;71.35;20.85;;;2.40;99.90;;;;;;5011121;28;20042;-65
2022/12/02 09:23:03;;;;;;;68.57;21.55;;;2.40;99.90;;;;;;5009415;28;20740;-64
2022/12/02 09:25:29;;;;;;;74.57;21.52;;;2.40;99.90;;;;;;5026783;28;20034;-62
2022/12/02 09:27:54;;;;;;;78.72;22.45;;;2.50;99.90;;;;;;5005741;28;20112;-63
2022/12/02 09:30:20;;;;;;;85.50;22.08;;;2.50;99.90;;;;;;5011281;28;20061;-61
2022/12/02 09:32:45;;;;;;;86.97;25.55;;;2.40;99.90;;;;;;5009366;28;20034;-61
2022/12/02 09:35:11;;;;;;;87.07;24.33;;;2.40;99.90;;;;;;5010194;28;20425;-62
2022/12/02 09:37:37;;;;;;;89.05;25.15;;;2.40;99.90;;;;;;5008918;28;22265;-62
2022/12/02 09:40:03;;;;;;;84.65;25.33;;;2.50;99.90;;;;;;5007862;28;20052;-64
2022/12/02 09:42:29;;;;;;;84.35;24.58;;;2.40;99.90;;;;;;5006979;28;20054;-64
2022/12/02 09:44:55;;;;;;;75.43;23.23;;;2.40;99.90;;;;;;5010512;28;20096;-64
2022/12/02 09:47:22;;;;;;;90.88;24.35;;;2.40;99.90;;;;;;5007840;28;20046;-64
2022/12/02 09:49:47;;;;;;;76.30;22.88;;;2.50;99.90;;;;;;5009331;28;20477;-64
2022/12/02 09:52:20;;;;;;;79.55;23.33;;;2.60;99.90;;;;;;5010123;28;20092;-65
2022/12/02 09:54:47;;;;;;;77.13;24.15;;;2.70;99.90;;;;;;5013206;28;20504;-63
2022/12/02 09:57:14;;;;;;;75.78;23.00;;;2.70;99.90;;;;;;5013181;28;22917;-64
2022/12/02 09:59:40;;;;;;;59.45;21.10;;;2.70;99.90;;;;;;5013780;28;20034;-66
2022/12/02 10:02:21;;;;;;;66.55;21.50;;;2.80;99.90;;;;;;5011027;28;20049;-64
2022/12/02 10:04:46;;;;;;;;;;;2.60;99.90;;;;;;5012089;28;20042;-64
2022/12/02 10:07:12;;;;;;;61.95;19.08;;;2.60;99.90;;;;;;5013864;28;19924;-64
2022/12/02 10:09:38;;;;;;;53.85;17.98;;;2.60;99.90;;;;;;5011955;28;20033;-64
2022/12/02 10:12:06;;;;;;;62.72;18.98;;;2.60;99.90;;;;;;5013320;28;20038;-64
2022/12/02 10:14:32;;;;;;;56.08;19.48;;;2.50;99.90;;;;;;5014960;28;20038;-64
2022/12/02 10:16:58;;;;;;;65.65;19.48;;;2.50;99.90;;;;;;5012840;28;20037;-64
2022/12/02 10:19:24;;;;;;;54.28;18.60;;;2.50;99.90;;;;;;5012198;28;20037;-64
2022/12/02 10:21:50;;;;;;;55.70;19.23;;;2.40;99.90;;;;;;5034971;28;20184;-65
2022/12/02 10:24:33;;;;;;;55.00;19.05;;;2.50;99.90;;;;;;5010054;28;20060;-65
2022/12/02 10:26:58;;;;;;;58.60;19.02;;;2.40;99.90;;;;;;5010562;28;20047;-64
2022/12/02 10:29:29;;;;;;;62.42;19.98;;;2.50;99.90;;;;;;5012108;28;20552;-66
2022/12/02 10:31:55;;;;;;;58.83;18.42;;;2.50;99.90;;;;;;5013345;28;20801;-65
2022/12/02 10:34:21;;;;;;;68.03;21.85;;;2.50;99.90;;;;;;5006261;28;20044;-65
2022/12/02 10:36:47;;;;;;;57.75;21.23;;;2.60;99.90;;;;;;4999857;28;20042;-65
2022/12/02 10:39:31;;;;;;;59.97;21.08;;;2.60;99.90;;;;;;5007541;28;20034;-65
2022/12/02 10:42:02;;;;;;;62.03;21.70;;;2.60;99.90;;;;;;5011175;28;20524;-65
2022/12/02 10:44:28;;;;;;;63.08;20.63;;;2.60;99.90;;;;;;5014867;28;20050;-65
2022/12/02 10:47:10;;;;;;;62.42;20.50;;;2.50;99.90;;;;;;5001228;28;20057;-63
2022/12/02 10:49:35;;;;;;;72.32;23.63;;;2.60;99.90;;;;;;5035704;28;20046;-66
2022/12/02 10:52:08;;;;;;;70.22;22.98;;;2.60;99.90;;;;;;5011854;28;20095;-65
2022/12/02 10:55:22;;;;;;;67.40;22.73;;;2.60;99.90;;;;;;5108138;27;20924;-66
2022/12/02 10:57:49;;;;;;;68.55;24.45;;;2.70;99.90;;;;;;5102600;28;20036;-66
2022/12/02 11:00:21;;;;;;;73.63;23.00;;;2.60;99.90;;;;;;5098962;28;20085;-68
2022/12/02 11:02:53;;;;;;;73.38;25.00;;;2.60;99.90;;;;;;5101432;28;20040;-65
2022/12/02 11:05:25;;;;;;;73.35;24.40;;;2.60;99.90;;;;;;5099629;28;20039;-64
2022/12/02 11:07:58;;;;;;;82.10;26.35;;;2.60;99.90;;;;;;5100484;28;20036;-65
2022/12/02 11:10:27;;;;;;;65.88;23.48;;;2.60;99.90;;;;;;5096079;28;20046;-62
2022/12/02 11:12:53;;;;;;;76.28;25.50;;;2.50;99.90;;;;;;5103560;28;20395;-64
2022/12/02 11:15:40;;;;;;;79.85;23.70;;;2.50;99.90;;;;;;5095894;28;20052;-61
2022/12/02 11:18:29;;;;;;;81.57;26.48;;;2.40;99.90;;;;;;5102770;28;20031;-61
2022/12/02 11:21:00;;;;;;;74.40;25.02;;;2.40;99.90;;;;;;5101810;28;20044;-61
2022/12/02 11:23:30;;;;;;;84.45;27.50;;;2.40;99.90;;;;;;5091559;28;20460;-62
2022/12/02 11:26:00;;;;;;;75.50;25.85;;;2.40;99.90;;;;;;5091515;28;20036;-62
2022/12/02 11:28:28;;;;;;;78.83;26.20;;;2.40;99.90;;;;;;5093449;28;20089;-61
2022/12/02 11:31:14;;;;;;;73.22;24.02;;;2.30;99.90;;;;;;5086892;28;20744;-61
2022/12/02 11:33:43;;;;;;;76.20;25.02;;;2.40;99.90;;;;;;5097191;28;20158;-61
2022/12/02 11:36:09;;;;;;;74.85;26.35;;;2.40;99.90;;;;;;5090807;28;20108;-61
2022/12/02 11:38:49;;;;;;;79.30;27.63;;;2.30;99.90;;;;;;5086449;28;20467;-62
2022/12/02 11:41:16;;;;;;;83.15;29.02;;;2.30;99.90;;;;;;5095146;28;20032;-61
2022/12/02 11:43:45;;;;;;;78.20;26.58;;;2.30;99.90;;;;;;5097782;28;20047;-61
2022/12/02 11:46:16;;;;;;;83.85;26.73;;;2.30;99.90;;;;;;5103115;28;20388;-62
2022/12/02 11:48:55;;;;;;;83.10;27.35;;;2.30;99.90;;;;;;5103782;28;20063;-62
2022/12/02 11:51:40;;;;;;;74.20;25.35;;;2.30;99.90;;;;;;5099182;28;20408;-62
2022/12/02 11:54:15;;;;;;;73.53;27.15;;;2.30;99.90;;;;;;5084935;28;20396;-62
2022/12/02 11:56:43;;;;;;;79.30;26.92;;;2.30;99.90;;;;;;5093319;28;20034;-62
2022/12/02 11:59:25;;;;;;;76.72;26.40;;;2.30;99.90;;;;;;5088466;28;20076;-61
2022/12/02 12:02:14;;;;;;;70.63;22.55;;;2.30;99.90;;;;;;5091967;28;20499;-61
2022/12/02 12:04:41;;;;;;;77.47;25.52;;;2.30;99.90;;;;;;5101748;28;20444;-61
2022/12/02 12:07:07;;;;;;;72.20;26.05;;;2.30;99.90;;;;;;5078606;28;20494;-61
2022/12/02 12:09:33;;;;;;;76.60;26.20;;;2.30;99.90;;;;;;5089767;28;20036;-61
2022/12/02 12:12:13;;;;;;;73.40;25.40;;;2.30;99.90;;;;;;5076119;28;20042;-62
2022/12/02 12:15:11;;;;;;;77.68;25.45;;;2.40;99.90;;;;;;5074108;28;20037;-61
2022/12/02 12:17:39;;;;;;;73.30;23.70;;;2.30;99.90;;;;;;5069260;28;20429;-61
2022/12/02 12:20:24;;;;;;;63.95;23.60;;;2.40;99.90;;;;;;5084477;28;20452;-61
2022/12/02 12:22:51;;;;;;;73.53;26.52;;;2.30;99.90;;;;;;5076221;28;20484;-61
2022/12/02 12:25:42;;;;;;;82.80;27.00;;;2.40;99.90;;;;;;5082382;28;20076;-61
2022/12/02 12:28:25;;;;;;;68.32;25.77;;;2.40;99.90;;;;;;5081551;28;20032;-62
2022/12/02 12:30:51;;;;;;;70.30;25.65;;;2.40;99.90;;;;;;5095203;28;20055;-61
2022/12/02 12:33:17;;;;;;;78.20;25.52;;;2.40;99.90;;;;;;5077914;28;20041;-62
2022/12/02 12:35:42;;;;;;;74.30;24.80;;;2.50;99.90;;;;;;5079280;28;20232;-61
2022/12/02 12:38:08;;;;;;;76.38;26.40;;;2.40;99.90;;;;;;5081594;28;20530;-62
2022/12/02 12:40:34;;;;;;;66.40;23.27;;;2.40;99.90;;;;;;5090961;28;20028;-62
2022/12/02 12:42:59;;;;;;;77.82;26.00;;;2.40;99.90;;;;;;5085656;28;20124;-62
2022/12/02 12:45:25;;;;;;;71.28;24.67;;;2.30;99.90;;;;;;5082902;28;20349;-61
2022/12/02 12:47:50;;;;;;;68.63;26.55;;;2.40;99.90;;;;;;5081382;28;20033;-62
2022/12/02 12:50:16;;;;;;;70.55;25.45;;;2.30;99.90;;;;;;5072304;28;20037;-61
2022/12/02 12:52:44;;;;;;;64.60;24.17;;;2.40;99.90;;;;;;5080744;28;20042;-65